createdAt,value
2022-11-21T00:00:41.572Z,0.15
2022-11-21T00:03:09.531Z,0.18
2022-11-21T00:05:38.974Z,0.20
2022-11-21T00:08:05.575Z,0.23
2022-11-21T00:10:31.923Z,0.21
2022-11-21T00:12:58.294Z,0.20
2022-11-21T00:15:25.574Z,0.20
2022-11-21T00:17:52.076Z,0.23
2022-11-21T00:20:19.806Z,0.22
2022-11-21T00:22:46.309Z,0.23
2022-11-21T00:25:12.839Z,0.25
2022-11-21T00:27:39.432Z,0.28
2022-11-21T00:30:07.311Z,0.29
2022-11-21T00:32:33.797Z,0.27
2022-11-21T00:35:00.183Z,0.25
2022-11-21T00:37:26.562Z,0.26
2022-11-21T00:39:52.953Z,0.20
2022-11-21T00:42:19.294Z,0.13
2022-11-21T00:44:45.637Z,0.16
2022-11-21T00:47:12.026Z,0.14
2022-11-21T00:49:38.362Z,0.12
2022-11-21T00:52:04.731Z,0.13
2022-11-21T00:54:31.086Z,0.18
2022-11-21T00:56:57.454Z,0.23
2022-11-21T00:59:23.812Z,0.21
2022-11-21T01:01:50.232Z,0.22
2022-11-21T01:04:16.638Z,0.16
2022-11-21T01:06:42.991Z,0.11
2022-11-21T01:09:09.415Z,0.08
2022-11-21T01:11:35.822Z,0.08
2022-11-21T01:14:02.209Z,0.08
2022-11-21T01:16:28.743Z,0.08
2022-11-21T01:18:55.241Z,0.09
2022-11-21T01:21:26.086Z,0.10
2022-11-21T01:23:52.608Z,0.12
2022-11-21T01:26:23.389Z,0.11
2022-11-21T01:28:50.119Z,0.13
2022-11-21T01:31:18.393Z,0.10
2022-11-21T01:33:44.916Z,0.14
2022-11-21T01:36:24.401Z,0.16
2022-11-21T01:38:52.579Z,0.10
2022-11-21T01:41:20.737Z,0.13
2022-11-21T01:43:50.306Z,0.10
2022-11-21T01:46:18.587Z,0.08
2022-11-21T01:49:06.299Z,0.09
2022-11-21T01:51:47.579Z,0.09
2022-11-21T01:54:20.003Z,0.13
2022-11-21T01:56:53.267Z,0.17
2022-11-21T01:59:46.068Z,0.17
2022-11-21T02:02:13.198Z,0.19
2022-11-21T02:04:39.592Z,0.19
2022-11-21T02:07:06.568Z,0.22
2022-11-21T02:09:33.535Z,0.23
2022-11-21T02:12:07.871Z,0.25
2022-11-21T02:14:34.385Z,0.25
2022-11-21T02:17:01.897Z,0.26
2022-11-21T02:19:34.979Z,0.25
2022-11-21T02:22:05.400Z,0.27
2022-11-21T02:24:46.436Z,0.17
2022-11-21T02:27:12.849Z,0.18
2022-11-21T02:29:39.516Z,0.21
2022-11-21T02:32:06.167Z,0.22
2022-11-21T02:34:33.087Z,0.22
2022-11-21T02:36:59.791Z,0.23
2022-11-21T02:39:29.036Z,0.22
2022-11-21T02:42:14.026Z,0.23
2022-11-21T02:44:45.825Z,0.20
2022-11-21T02:47:12.214Z,0.18
2022-11-21T02:49:46.236Z,0.14
2022-11-21T02:52:12.622Z,0.11
2022-11-21T02:54:38.955Z,0.08
2022-11-21T02:57:05.310Z,0.05
2022-11-21T02:59:31.695Z,0.01
2022-11-21T03:01:59.719Z,-0.02
2022-11-21T03:04:27.078Z,-0.08
2022-11-21T03:06:53.697Z,-0.12
2022-11-21T03:09:20.158Z,-0.13
2022-11-21T03:11:46.514Z,-0.10
2022-11-21T03:14:12.866Z,-0.09
2022-11-21T03:16:39.198Z,-0.05
2022-11-21T03:19:05.573Z,-0.01
2022-11-21T03:21:31.923Z,-0.06
2022-11-21T03:23:59.364Z,-0.07
2022-11-21T03:26:25.692Z,-0.08
2022-11-21T03:28:52.049Z,-0.14
2022-11-21T03:31:18.402Z,-0.17
2022-11-21T03:33:44.734Z,-0.18
2022-11-21T03:36:11.098Z,-0.14
2022-11-21T03:38:37.454Z,-0.09
2022-11-21T03:41:05.570Z,-0.05
2022-11-21T03:43:31.896Z,-0.02
2022-11-21T03:45:58.276Z,-0.04
2022-11-21T03:48:24.637Z,-0.05
2022-11-21T03:50:51.171Z,-0.04
2022-11-21T03:53:17.543Z,-0.05
2022-11-21T03:55:44.026Z,-0.06
2022-11-21T03:58:10.439Z,-0.04
2022-11-21T04:00:36.788Z,0.00
2022-11-21T04:03:03.242Z,-0.01
2022-11-21T04:05:29.588Z,-0.07
2022-11-21T04:07:55.971Z,-0.03
2022-11-21T04:10:22.414Z,-0.02
2022-11-21T04:12:48.778Z,-0.02
2022-11-21T04:15:15.151Z,-0.03
2022-11-21T04:17:41.641Z,-0.02
2022-11-21T04:20:08.895Z,-0.01
2022-11-21T04:22:35.235Z,-0.03
2022-11-21T04:25:01.594Z,-0.02
2022-11-21T04:27:27.946Z,-0.02
2022-11-21T04:29:54.303Z,0.00
2022-11-21T04:32:20.632Z,-0.01
2022-11-21T04:34:46.990Z,-0.02
2022-11-21T04:37:13.423Z,-0.05
2022-11-21T04:39:39.872Z,-0.09
2022-11-21T04:42:06.227Z,-0.07
2022-11-21T04:44:32.560Z,-0.06
2022-11-21T04:47:05.118Z,-0.08
2022-11-21T04:49:32.053Z,-0.05
2022-11-21T04:51:58.416Z,-0.05
2022-11-21T04:54:25.340Z,-0.07
2022-11-21T04:56:51.996Z,-0.12
2022-11-21T04:59:18.357Z,-0.12
2022-11-21T05:01:44.795Z,-0.19
2022-11-21T05:04:11.200Z,-0.22
2022-11-21T05:06:37.548Z,-0.24
2022-11-21T05:09:03.940Z,-0.25
2022-11-21T05:11:49.052Z,-0.26
2022-11-21T05:14:15.840Z,-0.32
2022-11-21T05:16:42.186Z,-0.38
2022-11-21T05:19:09.386Z,-0.41
2022-11-21T05:21:35.777Z,-0.46
2022-11-21T05:24:02.180Z,-0.47
2022-11-21T05:26:28.522Z,-0.47
2022-11-21T05:28:54.881Z,-0.47
2022-11-21T05:31:21.229Z,-0.48
2022-11-21T05:33:47.587Z,-0.55
2022-11-21T05:36:13.972Z,-0.53
2022-11-21T05:38:40.518Z,-0.57
2022-11-21T05:41:06.885Z,-0.61
2022-11-21T05:43:48.105Z,-0.64
2022-11-21T05:46:16.304Z,-0.67
2022-11-21T05:48:42.743Z,-0.68
2022-11-21T05:51:09.400Z,-0.71
2022-11-21T05:53:35.938Z,-0.73
2022-11-21T05:56:06.994Z,-0.75
2022-11-21T05:58:33.409Z,-0.81
2022-11-21T06:01:00.294Z,-0.87
2022-11-21T06:03:27.457Z,-0.94
2022-11-21T06:06:09.058Z,-0.98
2022-11-21T06:08:39.610Z,-1.05
2022-11-21T06:11:06.546Z,-1.10
2022-11-21T06:13:33.789Z,-1.13
2022-11-21T06:16:06.011Z,-1.18
2022-11-21T06:18:33.719Z,-1.20
2022-11-21T06:21:07.690Z,-1.26
2022-11-21T06:23:34.421Z,-1.29
2022-11-21T06:26:02.994Z,-1.33
2022-11-21T06:28:37.361Z,-1.34
2022-11-21T06:31:14.708Z,-1.41
2022-11-21T06:33:41.294Z,-1.46
2022-11-21T06:36:09.310Z,-1.48
2022-11-21T06:38:35.753Z,-1.50
2022-11-21T06:41:11.700Z,-1.56
2022-11-21T06:43:38.146Z,-1.55
2022-11-21T06:46:04.543Z,-1.56
2022-11-21T06:48:31.563Z,-1.57
2022-11-21T06:50:58.442Z,-1.55
2022-11-21T06:53:24.863Z,-1.56
2022-11-21T06:55:51.208Z,-1.53
2022-11-21T06:58:17.574Z,-1.54
2022-11-21T07:00:44.521Z,-1.55
2022-11-21T07:03:10.908Z,-1.53
2022-11-21T07:05:37.350Z,-1.51
2022-11-21T07:08:06.005Z,-1.51
2022-11-21T07:10:35.570Z,-1.49
2022-11-21T07:13:20.660Z,-1.46
2022-11-21T07:15:48.032Z,-1.44
2022-11-21T07:18:14.453Z,-1.40
2022-11-21T07:20:40.869Z,-1.28
2022-11-21T07:23:07.692Z,-1.17
2022-11-21T07:25:36.846Z,-1.06
2022-11-21T07:28:03.758Z,-0.98
2022-11-21T07:30:30.260Z,-0.97
2022-11-21T07:33:00.935Z,-0.87
2022-11-21T07:35:27.370Z,-0.94
2022-11-21T07:37:53.744Z,-0.96
2022-11-21T07:40:20.376Z,-1.03
2022-11-21T07:42:46.862Z,-1.03
2022-11-21T07:45:13.734Z,-0.98
2022-11-21T07:47:40.236Z,-1.03
2022-11-21T07:50:07.289Z,-1.01
2022-11-21T07:52:33.678Z,-1.04
2022-11-21T07:55:02.293Z,-0.95
2022-11-21T07:57:28.888Z,-1.09
2022-11-21T07:59:55.335Z,-1.13
2022-11-21T08:02:23.533Z,-1.08
2022-11-21T08:04:49.972Z,-1.08
2022-11-21T08:07:16.988Z,-1.06
2022-11-21T08:09:43.724Z,-1.00
2022-11-21T08:12:10.385Z,-0.92
2022-11-21T08:14:36.992Z,-0.83
2022-11-21T08:17:04.136Z,-0.91
2022-11-21T08:19:30.719Z,-0.88
2022-11-21T08:21:57.643Z,-0.85
2022-11-21T08:24:24.213Z,-0.92
2022-11-21T08:26:50.658Z,-0.92
2022-11-21T08:29:17.020Z,-0.82
2022-11-21T08:31:43.557Z,-0.75
2022-11-21T08:34:14.249Z,-0.70
2022-11-21T08:36:41.034Z,-0.65
2022-11-21T08:39:07.445Z,-0.66
2022-11-21T08:41:52.547Z,-0.63
2022-11-21T08:44:18.923Z,-0.54
2022-11-21T08:46:45.256Z,-0.51
2022-11-21T08:49:11.668Z,-0.54
2022-11-21T08:51:38.060Z,-0.53
2022-11-21T08:54:04.437Z,-0.51
2022-11-21T08:56:31.112Z,-0.48
2022-11-21T08:58:57.527Z,-0.43
2022-11-21T09:01:24.051Z,-0.34
2022-11-21T09:03:50.480Z,-0.26
2022-11-21T09:06:16.879Z,-0.24
2022-11-21T09:08:43.274Z,-0.23
2022-11-21T09:11:09.938Z,-0.33
2022-11-21T09:13:36.508Z,-0.36
2022-11-21T09:16:32.805Z,-0.32
2022-11-21T09:18:59.147Z,-0.27
2022-11-21T09:21:25.517Z,-0.31
2022-11-21T09:23:51.870Z,-0.31
2022-11-21T09:26:18.246Z,-0.24
2022-11-21T09:28:44.611Z,-0.24
2022-11-21T09:31:11.194Z,-0.15
2022-11-21T09:33:37.608Z,-0.17
2022-11-21T09:36:04.450Z,-0.11
2022-11-21T09:38:31.166Z,-0.03
2022-11-21T09:41:49.605Z,-0.04
2022-11-21T09:44:18.963Z,0.02
2022-11-21T09:46:47.287Z,0.03
2022-11-21T09:49:13.995Z,0.04
2022-11-21T09:51:40.357Z,0.06
2022-11-21T09:54:16.113Z,0.09
2022-11-21T09:56:43.443Z,0.12
2022-11-21T09:59:33.418Z,0.02
2022-11-21T10:01:59.816Z,0.10
2022-11-21T10:04:26.812Z,0.17
2022-11-21T10:07:03.768Z,0.24
2022-11-21T10:09:46.109Z,0.29
2022-11-21T10:12:38.056Z,0.34
2022-11-21T10:15:38.003Z,0.44
2022-11-21T10:18:28.585Z,0.40
2022-11-21T10:21:01.009Z,0.44
2022-11-21T10:23:42.482Z,0.47
2022-11-21T10:26:19.468Z,0.52
2022-11-21T10:29:08.347Z,0.59
2022-11-21T10:31:37.136Z,0.60
2022-11-21T10:34:03.847Z,0.62
2022-11-21T10:36:37.354Z,0.63
2022-11-21T10:39:28.937Z,0.82
2022-11-21T10:42:01.235Z,0.88
2022-11-21T10:44:47.428Z,0.98
2022-11-21T10:47:27.317Z,1.04
2022-11-21T10:50:15.840Z,1.08
2022-11-21T10:52:48.153Z,1.15
2022-11-21T10:55:15.142Z,1.20
2022-11-21T10:57:49.038Z,1.17
2022-11-21T11:00:22.564Z,1.21
2022-11-21T11:02:55.016Z,1.21
2022-11-21T11:05:23.170Z,1.33
2022-11-21T11:08:10.521Z,1.39
2022-11-21T11:11:00.052Z,1.51
2022-11-21T11:13:46.217Z,1.60
2022-11-21T11:16:15.209Z,1.59
2022-11-21T11:18:47.363Z,1.62
2022-11-21T11:21:21.467Z,1.57
2022-11-21T11:23:49.329Z,1.59
2022-11-21T11:26:49.262Z,1.66
2022-11-21T11:29:26.260Z,1.66
2022-11-21T11:31:59.049Z,1.61
2022-11-21T11:34:39.384Z,1.61
2022-11-21T11:37:43.179Z,1.64
2022-11-21T11:40:26.587Z,1.73
2022-11-21T11:43:17.598Z,1.73
2022-11-21T11:46:26.808Z,1.78
2022-11-21T11:49:19.311Z,1.74
2022-11-21T11:51:55.157Z,1.77
2022-11-21T11:54:28.022Z,1.83
2022-11-21T11:56:54.424Z,1.87
2022-11-21T11:59:27.149Z,1.93
2022-11-21T12:01:55.817Z,2.03
2022-11-21T12:04:24.911Z,2.03
2022-11-21T12:09:58.830Z,2.06
2022-11-21T12:12:37.577Z,2.09
2022-11-21T12:15:33.620Z,2.09
2022-11-21T12:18:15.291Z,2.09
2022-11-21T12:21:03.448Z,2.10
2022-11-21T12:23:39.953Z,2.09
2022-11-21T12:26:13.988Z,2.11
2022-11-21T12:28:47.136Z,2.09
2022-11-21T12:31:32.285Z,2.05
2022-11-21T12:34:29.049Z,2.06
2022-11-21T12:37:52.910Z,2.10
2022-11-21T12:40:31.394Z,2.12
2022-11-21T12:43:36.364Z,2.16
2022-11-21T12:46:10.754Z,2.27
2022-11-21T12:49:02.164Z,2.25
2022-11-21T12:52:09.144Z,2.25
2022-11-21T12:54:53.649Z,2.22
2022-11-21T12:57:20.961Z,2.23
2022-11-21T13:00:02.873Z,2.17
2022-11-21T13:02:44.207Z,2.17
2022-11-21T13:05:13.933Z,2.15
2022-11-21T13:07:40.412Z,2.18
2022-11-21T13:10:12.925Z,2.16
2022-11-21T13:12:47.698Z,2.15
2022-11-21T13:15:28.431Z,2.18
2022-11-21T13:18:02.379Z,2.25
2022-11-21T13:20:28.701Z,2.28
2022-11-21T13:22:56.737Z,2.20
2022-11-21T13:25:32.352Z,2.27
2022-11-21T13:28:14.131Z,2.29
2022-11-21T13:30:50.036Z,2.31
2022-11-21T13:33:34.756Z,2.29
2022-11-21T13:36:09.849Z,2.20
2022-11-21T13:38:51.213Z,2.11
2022-11-21T13:41:55.000Z,2.05
2022-11-21T13:44:30.879Z,1.95
2022-11-21T13:47:21.080Z,1.91
2022-11-21T13:50:09.334Z,1.85
2022-11-21T13:52:53.961Z,1.87
2022-11-21T13:55:51.449Z,1.84
2022-11-21T13:58:53.682Z,1.81
2022-11-21T14:01:50.745Z,1.84
2022-11-21T14:04:17.112Z,1.79
2022-11-21T14:06:43.624Z,1.73
2022-11-21T14:09:13.168Z,1.70
2022-11-21T14:11:48.015Z,1.68
2022-11-21T14:14:31.466Z,1.58
2022-11-21T14:17:07.820Z,1.49
2022-11-21T14:19:34.669Z,1.49
2022-11-21T14:22:01.040Z,1.46
2022-11-21T14:24:27.398Z,1.38
2022-11-21T14:26:54.231Z,1.35
2022-11-21T14:29:26.705Z,1.37
2022-11-21T14:31:53.498Z,1.36
2022-11-21T14:34:27.006Z,1.33
2022-11-21T14:36:54.645Z,1.29
2022-11-21T14:39:43.754Z,1.27
2022-11-21T14:42:14.975Z,1.22
2022-11-21T14:44:41.481Z,1.21
2022-11-21T14:47:19.814Z,1.17
2022-11-21T14:49:52.558Z,1.04
2022-11-21T14:52:30.469Z,1.03
2022-11-21T14:57:44.880Z,0.99
2022-11-21T15:00:36.145Z,0.97
2022-11-21T15:03:01.028Z,0.86
2022-11-21T15:06:00.238Z,0.77
2022-11-21T15:08:55.811Z,0.68
2022-11-21T15:11:10.089Z,0.61
2022-11-21T15:13:58.392Z,0.58
2022-11-21T15:16:23.335Z,0.53
2022-11-21T15:18:49.724Z,0.50
2022-11-21T15:21:16.265Z,0.47
2022-11-21T15:23:47.066Z,0.38
2022-11-21T15:26:30.632Z,0.37
2022-11-21T15:28:58.344Z,0.33
2022-11-21T15:31:24.771Z,0.27
2022-11-21T15:37:14.941Z,0.13
2022-11-21T15:39:44.929Z,0.09
2022-11-21T15:42:33.151Z,0.06
2022-11-21T15:45:20.739Z,0.03
2022-11-21T15:47:47.573Z,0.00
2022-11-21T15:50:14.668Z,-0.04
2022-11-21T15:52:48.627Z,0.00
2022-11-21T15:55:41.265Z,-0.01
2022-11-21T15:58:07.593Z,-0.12
2022-11-21T16:00:34.016Z,-0.14
2022-11-21T16:03:00.358Z,-0.15
2022-11-21T16:05:26.814Z,-0.10
2022-11-21T16:07:53.219Z,-0.05
2022-11-21T16:10:27.286Z,-0.12
2022-11-21T16:12:54.311Z,-0.12
2022-11-21T16:15:20.902Z,-0.14
2022-11-21T16:17:47.767Z,-0.15
2022-11-21T16:20:14.883Z,-0.19
2022-11-21T16:22:45.890Z,-0.20
2022-11-21T16:25:13.941Z,-0.23
2022-11-21T16:27:40.327Z,-0.29
2022-11-21T16:30:07.248Z,-0.35
2022-11-21T16:32:33.843Z,-0.34
2022-11-21T16:35:00.253Z,-0.38
2022-11-21T16:37:26.672Z,-0.38
2022-11-21T16:39:53.036Z,-0.39
2022-11-21T16:42:19.644Z,-0.45
2022-11-21T16:44:46.091Z,-0.47
2022-11-21T16:47:13.603Z,-0.50
2022-11-21T16:49:44.208Z,-0.52
2022-11-21T16:52:10.738Z,-0.52
2022-11-21T16:54:37.224Z,-0.54
2022-11-21T16:57:03.695Z,-0.54
2022-11-21T16:59:31.468Z,-0.52
2022-11-21T17:01:58.619Z,-0.54
2022-11-21T17:04:25.044Z,-0.55
2022-11-21T17:06:51.455Z,-0.59
2022-11-21T17:09:17.793Z,-0.60
2022-11-21T17:11:44.267Z,-0.62
2022-11-21T17:14:11.696Z,-0.65
2022-11-21T17:16:39.748Z,-0.64
2022-11-21T17:19:06.257Z,-0.65
2022-11-21T17:21:32.775Z,-0.65
2022-11-21T17:23:59.229Z,-0.66
2022-11-21T17:26:27.012Z,-0.67
2022-11-21T17:29:00.574Z,-0.65
2022-11-21T17:31:27.044Z,-0.60
2022-11-21T17:33:55.208Z,-0.54
2022-11-21T17:36:22.970Z,-0.45
2022-11-21T17:38:49.607Z,-0.33
2022-11-21T17:41:17.174Z,-0.26
2022-11-21T17:43:43.995Z,-0.25
2022-11-21T17:46:18.076Z,-0.24
2022-11-21T17:48:48.501Z,-0.16
2022-11-21T17:51:22.543Z,-0.11
2022-11-21T17:53:49.633Z,-0.06
2022-11-21T17:56:17.705Z,0.01
2022-11-21T17:58:44.194Z,-0.03
2022-11-21T18:01:13.645Z,-0.08
2022-11-21T18:03:40.378Z,-0.08
2022-11-21T18:06:10.867Z,-0.07
2022-11-21T18:08:38.788Z,-0.16
2022-11-21T18:11:05.895Z,-0.21
2022-11-21T18:13:32.786Z,-0.23
2022-11-21T18:16:04.136Z,-0.25
2022-11-21T18:18:34.072Z,-0.32
2022-11-21T18:21:08.223Z,-0.31
2022-11-21T18:23:34.737Z,-0.33
2022-11-21T18:26:08.070Z,-0.34
2022-11-21T18:28:34.442Z,-0.39
2022-11-21T18:31:11.540Z,-0.45
2022-11-21T18:33:38.258Z,-0.48
2022-11-21T18:36:05.820Z,-0.50
2022-11-21T18:38:58.008Z,-0.51
2022-11-21T18:41:28.322Z,-0.46
2022-11-21T18:43:56.120Z,-0.51
2022-11-21T18:46:22.789Z,-0.54
2022-11-21T18:49:04.225Z,-0.59
2022-11-21T18:51:32.215Z,-0.61
2022-11-21T18:54:00.316Z,-0.66
2022-11-21T18:56:26.709Z,-0.69
2022-11-21T18:58:58.366Z,-0.74
2022-11-21T19:01:27.032Z,-0.75
2022-11-21T19:03:53.707Z,-0.76
2022-11-21T19:06:21.204Z,-0.84
2022-11-21T19:08:49.224Z,-0.87
2022-11-21T19:11:15.930Z,-0.87
2022-11-21T19:13:42.433Z,-0.90
2022-11-21T19:16:11.679Z,-0.91
2022-11-21T19:18:41.168Z,-0.97
2022-11-21T19:21:13.286Z,-0.98
2022-11-21T19:23:40.456Z,-0.97
2022-11-21T19:26:11.146Z,-0.97
2022-11-21T19:28:37.569Z,-0.97
2022-11-21T19:31:04.895Z,-0.99
2022-11-21T19:33:31.907Z,-0.97
2022-11-21T19:36:05.041Z,-0.96
2022-11-21T19:38:31.731Z,-0.93
2022-11-21T19:41:14.117Z,-0.97
2022-11-21T19:43:40.892Z,-1.01
2022-11-21T19:46:07.424Z,-1.05
2022-11-21T19:48:33.909Z,-1.09
2022-11-21T19:51:02.058Z,-1.11
2022-11-21T19:53:28.957Z,-1.14
2022-11-21T19:55:55.399Z,-1.12
2022-11-21T19:58:21.868Z,-1.16
2022-11-21T20:00:48.318Z,-1.17
2022-11-21T20:03:14.677Z,-1.16
2022-11-21T20:05:41.053Z,-1.14
2022-11-21T20:08:15.307Z,-1.13
2022-11-21T20:10:43.942Z,-1.16
2022-11-21T20:13:10.369Z,-1.20
2022-11-21T20:15:38.636Z,-1.22
2022-11-21T20:18:05.519Z,-1.24
2022-11-21T20:20:31.908Z,-1.23
2022-11-21T20:22:58.249Z,-1.27
2022-11-21T20:25:24.612Z,-1.27
2022-11-21T20:27:50.980Z,-1.37
2022-11-21T20:30:17.506Z,-1.41
2022-11-21T20:32:43.850Z,-1.39
2022-11-21T20:35:10.171Z,-1.39
2022-11-21T20:37:36.517Z,-1.37
2022-11-21T20:40:03.077Z,-1.35
2022-11-21T20:42:29.430Z,-1.32
2022-11-21T20:45:54.373Z,-1.30
2022-11-21T20:47:42.188Z,-1.34
2022-11-21T20:50:08.940Z,-1.37
2022-11-21T20:55:22.701Z,-1.37
2022-11-21T20:57:49.048Z,-1.42
2022-11-21T21:00:16.258Z,-1.47
2022-11-21T21:02:42.612Z,-1.44
2022-11-21T21:05:09.334Z,-1.45
2022-11-21T21:07:35.831Z,-1.40
2022-11-21T21:10:02.254Z,-1.34
2022-11-21T21:12:31.164Z,-1.28
2022-11-21T21:14:57.578Z,-1.26
2022-11-21T21:17:23.940Z,-1.20
2022-11-21T21:19:50.303Z,-1.17
2022-11-21T21:22:16.875Z,-1.13
2022-11-21T21:24:43.245Z,-1.11
2022-11-21T21:27:09.648Z,-1.11
2022-11-21T21:29:36.080Z,-1.08
2022-11-21T21:32:02.475Z,-1.04
2022-11-21T21:34:29.145Z,-1.01
2022-11-21T21:36:55.798Z,-0.96
2022-11-21T21:39:22.175Z,-0.94
2022-11-21T21:41:48.738Z,-0.94
2022-11-21T21:44:15.644Z,-0.97
2022-11-21T21:46:42.170Z,-0.94
2022-11-21T21:49:08.540Z,-0.93
2022-11-21T21:51:37.005Z,-0.88
2022-11-21T21:54:03.563Z,-0.86
2022-11-21T21:56:29.933Z,-0.84
2022-11-21T21:58:56.959Z,-0.82
2022-11-21T22:01:24.873Z,-0.83
2022-11-21T22:03:55.521Z,-0.85
2022-11-21T22:06:21.872Z,-0.82
2022-11-21T22:08:48.634Z,-0.80
2022-11-21T22:11:14.970Z,-0.76
2022-11-21T22:13:42.346Z,-0.79
2022-11-21T22:16:11.013Z,-0.74
2022-11-21T22:18:37.795Z,-0.72
2022-11-21T22:21:15.179Z,-0.68
2022-11-21T22:23:56.374Z,-0.67
2022-11-21T22:26:28.197Z,-0.62
2022-11-21T22:28:54.589Z,-0.60
2022-11-21T22:31:21.052Z,-0.56
2022-11-21T22:33:47.384Z,-0.53
2022-11-21T22:36:15.719Z,-0.48
2022-11-21T22:38:42.162Z,-0.44
2022-11-21T22:41:15.228Z,-0.41
2022-11-21T22:43:41.831Z,-0.38
2022-11-21T22:46:09.440Z,-0.36
2022-11-21T22:48:36.481Z,-0.34
2022-11-21T22:51:02.968Z,-0.32
2022-11-21T22:53:29.337Z,-0.31
2022-11-21T22:55:59.614Z,-0.30
2022-11-21T22:58:26.318Z,-0.33
2022-11-21T23:00:54.648Z,-0.29
2022-11-21T23:03:21.563Z,-0.26
2022-11-21T23:05:47.946Z,-0.26
2022-11-21T23:08:14.275Z,-0.23
2022-11-21T23:10:40.636Z,-0.19
2022-11-21T23:13:07.061Z,-0.16
2022-11-21T23:15:33.456Z,-0.11
2022-11-21T23:17:59.803Z,-0.10
2022-11-21T23:20:26.143Z,-0.10
2022-11-21T23:22:52.574Z,-0.08
2022-11-21T23:25:18.927Z,-0.05
2022-11-21T23:27:45.285Z,0.00
2022-11-21T23:30:12.031Z,0.05
2022-11-21T23:32:38.383Z,0.09
2022-11-21T23:35:05.112Z,0.12
2022-11-21T23:37:31.477Z,0.17
2022-11-21T23:39:57.816Z,0.14
2022-11-21T23:42:24.185Z,0.14
2022-11-21T23:44:50.537Z,0.15
2022-11-21T23:47:16.902Z,0.20
2022-11-21T23:49:47.413Z,0.23
2022-11-21T23:52:16.472Z,0.23
2022-11-21T23:54:42.878Z,0.24
2022-11-21T23:57:09.240Z,0.26
2022-11-21T23:59:35.635Z,0.29
